sensor_id;sensor_type;location;lat;lon;timestamp;P1;durP1;ratioP1;P2;durP2;ratioP2
45033;SDS011;30771;47.988;-4.186;2023-08-01T06:01:52;25.15;;;8.43;;
45033;SDS011;30771;47.988;-4.186;2023-08-01T06:04:17;31.52;;;8.13;;
45033;SDS011;30771;47.988;-4.186;2023-08-01T06:06:43;37.53;;;8.90;;
45033;SDS011;30771;47.988;-4.186;2023-08-01T06:09:08;35.90;;;8.77;;
45033;SDS011;30771;47.988;-4.186;2023-08-01T06:11:33;26.33;;;8.40;;
45033;SDS011;30771;47.988;-4.186;2023-08-01T06:13:59;30.23;;;7.95;;
45033;SDS011;30771;47.988;-4.186;2023-08-01T06:16:25;36.75;;;8.25;;
45033;SDS011;30771;47.988;-4.186;2023-08-01T06:18:50;35.00;;;9.20;;
45033;SDS011;30771;47.988;-4.186;2023-08-01T06:21:16;31.67;;;9.20;;
45033;SDS011;30771;47.988;-4.186;2023-08-01T06:23:41;29.98;;;8.93;;
45033;SDS011;30771;47.988;-4.186;2023-08-01T06:26:06;31.92;;;8.05;;
45033;SDS011;30771;47.988;-4.186;2023-08-01T06:28:32;35.80;;;8.70;;
45033;SDS011;30771;47.988;-4.186;2023-08-01T06:30:57;31.85;;;9.00;;
45033;SDS011;30771;47.988;-4.186;2023-08-01T06:33:22;35.38;;;9.27;;
45033;SDS011;30771;47.988;-4.186;2023-08-01T06:35:48;32.17;;;8.55;;
45033;SDS011;30771;47.988;-4.186;2023-08-01T06:38:14;22.85;;;8.05;;
45033;SDS011;30771;47.988;-4.186;2023-08-01T06:40:39;30.92;;;8.02;;
45033;SDS011;30771;47.988;-4.186;2023-08-01T06:43:05;31.70;;;8.85;;
45033;SDS011;30771;47.988;-4.186;2023-08-01T06:45:30;21.17;;;8.50;;
45033;SDS011;30771;47.988;-4.186;2023-08-01T06:47:55;31.70;;;8.50;;
45033;SDS011;30771;47.988;-4.186;2023-08-01T06:50:21;34.20;;;8.65;;
45033;SDS011;30771;47.988;-4.186;2023-08-01T06:52:46;27.52;;;8.88;;
45033;SDS011;30771;47.988;-4.186;2023-08-01T06:55:11;30.08;;;8.90;;
45033;SDS011;30771;47.988;-4.186;2023-08-01T06:57:37;25.95;;;8.73;;
45033;SDS011;30771;47.988;-4.186;2023-08-01T07:00:03;42.13;;;9.07;;
45033;SDS011;30771;47.988;-4.186;2023-08-01T07:02:28;31.17;;;8.40;;
45033;SDS011;30771;47.988;-4.186;2023-08-01T07:04:53;39.25;;;9.18;;
45033;SDS011;30771;47.988;-4.186;2023-08-01T07:07:19;24.40;;;8.15;;
45033;SDS011;30771;47.988;-4.186;2023-08-01T07:09:44;37.15;;;9.27;;
45033;SDS011;30771;47.988;-4.186;2023-08-01T07:12:10;29.27;;;8.23;;
45033;SDS011;30771;47.988;-4.186;2023-08-01T07:14:35;28.92;;;8.40;;
45033;SDS011;30771;47.988;-4.186;2023-08-01T07:17:01;30.15;;;8.60;;
45033;SDS011;30771;47.988;-4.186;2023-08-01T07:19:26;30.75;;;8.30;;
45033;SDS011;30771;47.988;-4.186;2023-08-01T07:21:51;30.08;;;8.48;;
45033;SDS011;30771;47.988;-4.186;2023-08-01T07:24:17;37.10;;;8.35;;
45033;SDS011;30771;47.988;-4.186;2023-08-01T07:26:42;37.10;;;8.35;;
45033;SDS011;30771;47.988;-4.186;2023-08-01T07:29:07;30.98;;;8.05;;
45033;SDS011;30771;47.988;-4.186;2023-08-01T07:31:35;30.85;;;7.47;;
45033;SDS011;30771;47.988;-4.186;2023-08-01T07:34:01;31.38;;;7.63;;
45033;SDS011;30771;47.988;-4.186;2023-08-01T07:36:26;33.20;;;7.78;;
45033;SDS011;30771;47.988;-4.186;2023-08-01T07:38:53;25.45;;;7.38;;
45033;SDS011;30771;47.988;-4.186;2023-08-01T07:41:19;29.08;;;7.65;;
45033;SDS011;30771;47.988;-4.186;2023-08-01T07:43:44;32.83;;;8.18;;
45033;SDS011;30771;47.988;-4.186;2023-08-01T07:46:09;24.17;;;7.93;;
45033;SDS011;30771;47.988;-4.186;2023-08-01T07:48:36;28.08;;;8.05;;
45033;SDS011;30771;47.988;-4.186;2023-08-01T07:51:02;32.22;;;8.35;;
45033;SDS011;30771;47.988;-4.186;2023-08-01T07:53:30;25.65;;;8.45;;
45033;SDS011;30771;47.988;-4.186;2023-08-01T07:55:55;34.10;;;8.90;;
45033;SDS011;30771;47.988;-4.186;2023-08-01T07:58:21;28.98;;;8.15;;
45033;SDS011;30771;47.988;-4.186;2023-08-01T08:00:46;25.92;;;8.85;;
45033;SDS011;30771;47.988;-4.186;2023-08-01T08:03:12;25.58;;;8.50;;
45033;SDS011;30771;47.988;-4.186;2023-08-01T08:05:37;27.27;;;7.72;;
45033;SDS011;30771;47.988;-4.186;2023-08-01T08:08:03;32.10;;;7.97;;
45033;SDS011;30771;47.988;-4.186;2023-08-01T08:10:30;24.20;;;8.57;;
45033;SDS011;30771;47.988;-4.186;2023-08-01T08:12:55;26.58;;;7.70;;
45033;SDS011;30771;47.988;-4.186;2023-08-01T08:15:21;24.88;;;7.63;;
45033;SDS011;30771;47.988;-4.186;2023-08-01T08:17:48;22.17;;;8.10;;
45033;SDS011;30771;47.988;-4.186;2023-08-01T08:20:13;36.67;;;7.97;;
45033;SDS011;30771;47.988;-4.186;2023-08-01T08:22:39;30.58;;;8.02;;
45033;SDS011;30771;47.988;-4.186;2023-08-01T08:25:04;27.02;;;7.50;;
45033;SDS011;30771;47.988;-4.186;2023-08-01T08:27:30;28.33;;;7.60;;
45033;SDS011;30771;47.988;-4.186;2023-08-01T08:29:55;22.38;;;7.28;;
45033;SDS011;30771;47.988;-4.186;2023-08-01T08:32:20;25.98;;;7.13;;
45033;SDS011;30771;47.988;-4.186;2023-08-01T08:34:46;20.83;;;6.72;;
45033;SDS011;30771;47.988;-4.186;2023-08-01T08:37:11;21.60;;;5.88;;
45033;SDS011;30771;47.988;-4.186;2023-08-01T08:39:36;21.80;;;6.30;;
45033;SDS011;30771;47.988;-4.186;2023-08-01T08:42:02;22.73;;;6.65;;
45033;SDS011;30771;47.988;-4.186;2023-08-01T08:44:27;19.25;;;7.00;;
45033;SDS011;30771;47.988;-4.186;2023-08-01T08:47:00;17.25;;;6.72;;
45033;SDS011;30771;47.988;-4.186;2023-08-01T08:49:31;21.02;;;7.28;;
45033;SDS011;30771;47.988;-4.186;2023-08-01T08:51:57;22.60;;;7.57;;
45033;SDS011;30771;47.988;-4.186;2023-08-01T08:54:23;21.25;;;7.35;;
45033;SDS011;30771;47.988;-4.186;2023-08-01T08:56:49;16.15;;;6.50;;
45033;SDS011;30771;47.988;-4.186;2023-08-01T08:59:15;18.95;;;6.20;;
45033;SDS011;30771;47.988;-4.186;2023-08-01T09:01:41;19.17;;;6.80;;
45033;SDS011;30771;47.988;-4.186;2023-08-01T09:04:06;23.90;;;7.07;;
45033;SDS011;30771;47.988;-4.186;2023-08-01T09:06:35;25.35;;;7.68;;
45033;SDS011;30771;47.988;-4.186;2023-08-01T09:09:14;22.75;;;8.40;;
45033;SDS011;30771;47.988;-4.186;2023-08-01T09:11:46;27.30;;;7.80;;
45033;SDS011;30771;47.988;-4.186;2023-08-01T09:14:16;26.02;;;8.20;;
45033;SDS011;30771;47.988;-4.186;2023-08-01T09:16:42;35.83;;;8.10;;
45033;SDS011;30771;47.988;-4.186;2023-08-01T09:19:09;26.70;;;7.55;;
45033;SDS011;30771;47.988;-4.186;2023-08-01T09:21:35;24.80;;;7.85;;
45033;SDS011;30771;47.988;-4.186;2023-08-01T09:24:08;34.40;;;8.00;;
45033;SDS011;30771;47.988;-4.186;2023-08-01T09:26:34;25.52;;;7.20;;
45033;SDS011;30771;47.988;-4.186;2023-08-01T09:29:00;26.08;;;7.00;;
45033;SDS011;30771;47.988;-4.186;2023-08-01T09:31:28;25.98;;;8.40;;
45033;SDS011;30771;47.988;-4.186;2023-08-01T09:33:55;32.28;;;8.15;;
45033;SDS011;30771;47.988;-4.186;2023-08-01T09:36:21;25.05;;;7.28;;
45033;SDS011;30771;47.988;-4.186;2023-08-01T09:38:47;29.77;;;7.55;;
45033;SDS011;30771;47.988;-4.186;2023-08-01T09:41:19;23.55;;;7.45;;
45033;SDS011;30771;47.988;-4.186;2023-08-01T09:43:47;18.98;;;6.75;;
45033;SDS011;30771;47.988;-4.186;2023-08-01T09:46:13;25.55;;;6.70;;
45033;SDS011;30771;47.988;-4.186;2023-08-01T09:48:38;30.58;;;7.55;;
45033;SDS011;30771;47.988;-4.186;2023-08-01T09:53:33;33.80;;;7.32;;
45033;SDS011;30771;47.988;-4.186;2023-08-01T09:56:00;22.33;;;6.68;;
45033;SDS011;30771;47.988;-4.186;2023-08-01T09:58:32;27.42;;;6.20;;
45033;SDS011;30771;47.988;-4.186;2023-08-01T10:00:59;25.17;;;6.95;;
45033;SDS011;30771;47.988;-4.186;2023-08-01T10:03:27;24.40;;;6.28;;
45033;SDS011;30771;47.988;-4.186;2023-08-01T10:05:53;22.13;;;6.07;;
45033;SDS011;30771;47.988;-4.186;2023-08-01T10:08:20;31.95;;;6.90;;
45033;SDS011;30771;47.988;-4.186;2023-08-01T10:10:47;24.17;;;6.95;;
45033;SDS011;30771;47.988;-4.186;2023-08-01T10:13:13;39.58;;;9.60;;
45033;SDS011;30771;47.988;-4.186;2023-08-01T10:15:39;26.92;;;6.88;;
45033;SDS011;30771;47.988;-4.186;2023-08-01T10:18:05;26.20;;;6.68;;
45033;SDS011;30771;47.988;-4.186;2023-08-01T10:20:30;27.70;;;6.75;;
45033;SDS011;30771;47.988;-4.186;2023-08-01T10:22:57;21.73;;;6.20;;
45033;SDS011;30771;47.988;-4.186;2023-08-01T10:25:23;24.35;;;6.28;;
45033;SDS011;30771;47.988;-4.186;2023-08-01T10:28:07;30.85;;;10.07;;
45033;SDS011;30771;47.988;-4.186;2023-08-01T10:30:32;26.90;;;8.02;;
45033;SDS011;30771;47.988;-4.186;2023-08-01T10:32:58;26.60;;;6.90;;
45033;SDS011;30771;47.988;-4.186;2023-08-01T10:35:31;19.48;;;6.40;;
45033;SDS011;30771;47.988;-4.186;2023-08-01T10:38:03;19.83;;;6.35;;
45033;SDS011;30771;47.988;-4.186;2023-08-01T10:40:34;20.67;;;5.50;;
45033;SDS011;30771;47.988;-4.186;2023-08-01T10:43:03;13.88;;;5.30;;
45033;SDS011;30771;47.988;-4.186;2023-08-01T10:45:29;13.55;;;5.68;;
45033;SDS011;30771;47.988;-4.186;2023-08-01T10:47:54;22.33;;;6.22;;
45033;SDS011;30771;47.988;-4.186;2023-08-01T10:50:32;13.98;;;5.20;;
45033;SDS011;30771;47.988;-4.186;2023-08-01T10:53:07;19.20;;;5.82;;
45033;SDS011;30771;47.988;-4.186;2023-08-01T10:55:46;17.25;;;5.03;;
45033;SDS011;30771;47.988;-4.186;2023-08-01T10:58:13;15.52;;;5.75;;
45033;SDS011;30771;47.988;-4.186;2023-08-01T11:00:41;12.30;;;5.20;;
45033;SDS011;30771;47.988;-4.186;2023-08-01T11:03:07;15.68;;;5.18;;
45033;SDS011;30771;47.988;-4.186;2023-08-01T11:05:32;18.02;;;5.15;;
45033;SDS011;30771;47.988;-4.186;2023-08-01T11:07:58;15.30;;;5.38;;
45033;SDS011;30771;47.988;-4.186;2023-08-01T11:10:25;14.82;;;4.97;;
45033;SDS011;30771;47.988;-4.186;2023-08-01T11:12:52;23.02;;;6.07;;
45033;SDS011;30771;47.988;-4.186;2023-08-01T11:15:18;18.30;;;6.05;;
45033;SDS011;30771;47.988;-4.186;2023-08-01T11:17:48;21.83;;;6.45;;
45033;SDS011;30771;47.988;-4.186;2023-08-01T11:20:14;20.98;;;6.65;;
45033;SDS011;30771;47.988;-4.186;2023-08-01T11:22:59;25.58;;;7.38;;
45033;SDS011;30771;47.988;-4.186;2023-08-01T11:25:41;25.40;;;7.68;;
45033;SDS011;30771;47.988;-4.186;2023-08-01T11:28:11;24.75;;;7.38;;
45033;SDS011;30771;47.988;-4.186;2023-08-01T11:35:40;28.65;;;7.97;;
45033;SDS011;30771;47.988;-4.186;2023-08-01T11:38:06;26.75;;;7.20;;
45033;SDS011;30771;47.988;-4.186;2023-08-01T11:40:32;16.15;;;7.07;;
45033;SDS011;30771;47.988;-4.186;2023-08-01T11:42:58;25.05;;;7.55;;
45033;SDS011;30771;47.988;-4.186;2023-08-01T11:45:24;27.48;;;7.93;;
45033;SDS011;30771;47.988;-4.186;2023-08-01T11:47:50;31.15;;;7.95;;
45033;SDS011;30771;47.988;-4.186;2023-08-01T11:50:23;35.47;;;8.70;;
45033;SDS011;30771;47.988;-4.186;2023-08-01T11:52:49;36.35;;;8.63;;
45033;SDS011;30771;47.988;-4.186;2023-08-01T11:55:18;29.95;;;8.60;;
45033;SDS011;30771;47.988;-4.186;2023-08-01T11:57:56;25.85;;;7.97;;
45033;SDS011;30771;47.988;-4.186;2023-08-01T12:00:23;23.15;;;7.40;;
45033;SDS011;30771;47.988;-4.186;2023-08-01T12:02:49;27.67;;;7.85;;
45033;SDS011;30771;47.988;-4.186;2023-08-01T12:05:21;28.30;;;8.30;;
45033;SDS011;30771;47.988;-4.186;2023-08-01T12:07:48;24.70;;;8.07;;
45033;SDS011;30771;47.988;-4.186;2023-08-01T12:10:13;31.33;;;8.60;;
45033;SDS011;30771;47.988;-4.186;2023-08-01T12:12:43;30.00;;;8.23;;
45033;SDS011;30771;47.988;-4.186;2023-08-01T12:15:10;33.05;;;8.15;;
45033;SDS011;30771;47.988;-4.186;2023-08-01T12:17:36;36.47;;;8.57;;
45033;SDS011;30771;47.988;-4.186;2023-08-01T12:20:02;38.20;;;8.77;;
45033;SDS011;30771;47.988;-4.186;2023-08-01T12:22:27;35.78;;;8.90;;
45033;SDS011;30771;47.988;-4.186;2023-08-01T12:24:52;31.52;;;8.98;;
45033;SDS011;30771;47.988;-4.186;2023-08-01T12:27:18;32.00;;;7.78;;
45033;SDS011;30771;47.988;-4.186;2023-08-01T12:29:43;36.47;;;9.57;;
45033;SDS011;30771;47.988;-4.186;2023-08-01T12:32:08;24.15;;;7.80;;
45033;SDS011;30771;47.988;-4.186;2023-08-01T12:34:34;27.23;;;7.88;;
45033;SDS011;30771;47.988;-4.186;2023-08-01T12:36:59;28.27;;;8.13;;
45033;SDS011;30771;47.988;-4.186;2023-08-01T12:39:25;28.73;;;7.47;;
45033;SDS011;30771;47.988;-4.186;2023-08-01T12:41:51;21.70;;;7.47;;
45033;SDS011;30771;47.988;-4.186;2023-08-01T12:44:18;20.58;;;7.50;;
45033;SDS011;30771;47.988;-4.186;2023-08-01T12:46:43;25.33;;;6.55;;
45033;SDS011;30771;47.988;-4.186;2023-08-01T12:49:09;19.05;;;6.63;;
45033;SDS011;30771;47.988;-4.186;2023-08-01T12:51:34;19.92;;;6.95;;
45033;SDS011;30771;47.988;-4.186;2023-08-01T12:53:59;15.18;;;6.63;;
45033;SDS011;30771;47.988;-4.186;2023-08-01T12:56:25;16.23;;;6.25;;
45033;SDS011;30771;47.988;-4.186;2023-08-01T12:58:50;16.50;;;6.80;;
45033;SDS011;30771;47.988;-4.186;2023-08-01T13:01:15;21.33;;;6.93;;
45033;SDS011;30771;47.988;-4.186;2023-08-01T13:03:41;20.48;;;7.40;;
45033;SDS011;30771;47.988;-4.186;2023-08-01T13:06:09;26.88;;;7.72;;
45033;SDS011;30771;47.988;-4.186;2023-08-01T13:08:35;30.50;;;9.05;;
45033;SDS011;30771;47.988;-4.186;2023-08-01T13:11:00;25.63;;;9.18;;
45033;SDS011;30771;47.988;-4.186;2023-08-01T13:13:27;30.55;;;9.32;;
45033;SDS011;30771;47.988;-4.186;2023-08-01T13:15:53;28.85;;;8.90;;
45033;SDS011;30771;47.988;-4.186;2023-08-01T13:18:18;24.58;;;8.98;;
45033;SDS011;30771;47.988;-4.186;2023-08-01T13:20:44;29.27;;;9.00;;
45033;SDS011;30771;47.988;-4.186;2023-08-01T13:23:09;25.67;;;9.27;;
45033;SDS011;30771;47.988;-4.186;2023-08-01T13:25:35;31.05;;;9.93;;
45033;SDS011;30771;47.988;-4.186;2023-08-01T13:28:00;26.15;;;9.75;;
45033;SDS011;30771;47.988;-4.186;2023-08-01T13:30:26;32.67;;;8.80;;
45033;SDS011;30771;47.988;-4.186;2023-08-01T13:32:51;24.05;;;8.70;;
45033;SDS011;30771;47.988;-4.186;2023-08-01T13:35:17;25.02;;;9.13;;
45033;SDS011;30771;47.988;-4.186;2023-08-01T13:37:42;26.15;;;9.05;;
45033;SDS011;30771;47.988;-4.186;2023-08-01T13:40:07;21.58;;;9.00;;
45033;SDS011;30771;47.988;-4.186;2023-08-01T13:42:35;24.60;;;9.25;;
45033;SDS011;30771;47.988;-4.186;2023-08-01T13:45:00;24.02;;;8.32;;
45033;SDS011;30771;47.988;-4.186;2023-08-01T13:47:26;22.70;;;8.70;;
45033;SDS011;30771;47.988;-4.186;2023-08-01T13:49:51;21.45;;;8.60;;
45033;SDS011;30771;47.988;-4.186;2023-08-01T13:52:16;28.65;;;8.93;;
45033;SDS011;30771;47.988;-4.186;2023-08-01T13:54:42;19.58;;;7.60;;
45033;SDS011;30771;47.988;-4.186;2023-08-01T13:57:07;28.23;;;8.13;;
45033;SDS011;30771;47.988;-4.186;2023-08-01T13:59:33;22.85;;;8.80;;
45033;SDS011;30771;47.988;-4.186;2023-08-01T14:01:58;27.67;;;8.02;;
45033;SDS011;30771;47.988;-4.186;2023-08-01T14:04:24;27.17;;;8.90;;
45033;SDS011;30771;47.988;-4.186;2023-08-01T14:06:49;19.80;;;8.02;;
45033;SDS011;30771;47.988;-4.186;2023-08-01T14:09:14;17.27;;;7.60;;
45033;SDS011;30771;47.988;-4.186;2023-08-01T14:11:40;18.13;;;7.93;;
45033;SDS011;30771;47.988;-4.186;2023-08-01T14:14:05;15.70;;;6.53;;
45033;SDS011;30771;47.988;-4.186;2023-08-01T14:16:31;18.77;;;7.03;;
45033;SDS011;30771;47.988;-4.186;2023-08-01T14:18:58;15.70;;;6.03;;
45033;SDS011;30771;47.988;-4.186;2023-08-01T14:21:24;18.25;;;6.57;;
45033;SDS011;30771;47.988;-4.186;2023-08-01T14:23:49;17.70;;;7.55;;
45033;SDS011;30771;47.988;-4.186;2023-08-01T14:26:15;15.75;;;6.40;;
45033;SDS011;30771;47.988;-4.186;2023-08-01T14:28:40;16.50;;;6.95;;
45033;SDS011;30771;47.988;-4.186;2023-08-01T14:31:05;14.70;;;6.55;;
45033;SDS011;30771;47.988;-4.186;2023-08-01T14:33:32;16.58;;;6.22;;
45033;SDS011;30771;47.988;-4.186;2023-08-01T14:35:58;12.13;;;6.90;;
45033;SDS011;30771;47.988;-4.186;2023-08-01T14:38:23;13.80;;;6.47;;
45033;SDS011;30771;47.988;-4.186;2023-08-01T14:40:49;14.88;;;7.15;;
45033;SDS011;30771;47.988;-4.186;2023-08-01T14:43:14;15.40;;;6.68;;
45033;SDS011;30771;47.988;-4.186;2023-08-01T14:45:40;14.65;;;6.35;;
45033;SDS011;30771;47.988;-4.186;2023-08-01T14:48:08;16.55;;;7.05;;
45033;SDS011;30771;47.988;-4.186;2023-08-01T14:50:34;21.48;;;7.35;;
45033;SDS011;30771;47.988;-4.186;2023-08-01T14:53:00;12.77;;;5.78;;
45033;SDS011;30771;47.988;-4.186;2023-08-01T14:55:28;12.77;;;6.75;;
45033;SDS011;30771;47.988;-4.186;2023-08-01T14:57:53;14.60;;;6.88;;
45033;SDS011;30771;47.988;-4.186;2023-08-01T15:00:19;16.67;;;6.38;;
45033;SDS011;30771;47.988;-4.186;2023-08-01T15:02:44;15.50;;;6.65;;
45033;SDS011;30771;47.988;-4.186;2023-08-01T15:05:11;11.50;;;5.70;;
45033;SDS011;30771;47.988;-4.186;2023-08-01T15:07:37;9.10;;;3.97;;
45033;SDS011;30771;47.988;-4.186;2023-08-01T15:10:03;9.52;;;4.10;;
45033;SDS011;30771;47.988;-4.186;2023-08-01T15:12:28;8.55;;;4.65;;
45033;SDS011;30771;47.988;-4.186;2023-08-01T15:14:54;10.20;;;4.97;;
45033;SDS011;30771;47.988;-4.186;2023-08-01T15:17:20;7.30;;;4.20;;
45033;SDS011;30771;47.988;-4.186;2023-08-01T15:19:46;7.10;;;4.03;;
45033;SDS011;30771;47.988;-4.186;2023-08-01T15:22:21;5.68;;;3.58;;
45033;SDS011;30771;47.988;-4.186;2023-08-01T15:24:46;5.55;;;3.97;;
45033;SDS011;30771;47.988;-4.186;2023-08-01T15:27:12;6.38;;;3.67;;
45033;SDS011;30771;47.988;-4.186;2023-08-01T15:29:38;5.05;;;3.20;;
45033;SDS011;30771;47.988;-4.186;2023-08-01T15:32:04;5.82;;;2.88;;
45033;SDS011;30771;47.988;-4.186;2023-08-01T15:34:30;4.40;;;2.90;;
45033;SDS011;30771;47.988;-4.186;2023-08-01T15:36:55;6.03;;;3.10;;
45033;SDS011;30771;47.988;-4.186;2023-08-01T15:39:21;4.63;;;3.00;;
45033;SDS011;30771;47.988;-4.186;2023-08-01T15:41:47;5.22;;;3.42;;
45033;SDS011;30771;47.988;-4.186;2023-08-01T15:44:12;7.50;;;3.50;;
45033;SDS011;30771;47.988;-4.186;2023-08-01T15:46:38;5.30;;;4.00;;
45033;SDS011;30771;47.988;-4.186;2023-08-01T15:49:04;7.35;;;3.92;;
45033;SDS011;30771;47.988;-4.186;2023-08-01T15:51:30;8.10;;;3.83;;
45033;SDS011;30771;47.988;-4.186;2023-08-01T15:53:56;6.63;;;4.55;;
45033;SDS011;30771;47.988;-4.186;2023-08-01T15:56:22;6.40;;;4.15;;
45033;SDS011;30771;47.988;-4.186;2023-08-01T15:58:48;7.18;;;4.97;;
45033;SDS011;30771;47.988;-4.186;2023-08-01T16:01:13;9.25;;;5.78;;
45033;SDS011;30771;47.988;-4.186;2023-08-01T16:03:39;8.98;;;5.85;;
45033;SDS011;30771;47.988;-4.186;2023-08-01T16:06:06;9.48;;;5.93;;
45033;SDS011;30771;47.988;-4.186;2023-08-01T16:08:32;9.75;;;6.20;;
45033;SDS011;30771;47.988;-4.186;2023-08-01T16:10:58;10.00;;;5.70;;
45033;SDS011;30771;47.988;-4.186;2023-08-01T16:13:24;10.75;;;6.03;;
45033;SDS011;30771;47.988;-4.186;2023-08-01T16:15:50;9.68;;;6.72;;
45033;SDS011;30771;47.988;-4.186;2023-08-01T16:18:16;7.90;;;5.07;;
45033;SDS011;30771;47.988;-4.186;2023-08-01T16:20:42;9.70;;;6.00;;
45033;SDS011;30771;47.988;-4.186;2023-08-01T16:23:08;9.88;;;6.43;;
45033;SDS011;30771;47.988;-4.186;2023-08-01T16:25:34;10.00;;;6.53;;
45033;SDS011;30771;47.988;-4.186;2023-08-01T16:27:59;12.50;;;7.97;;
45033;SDS011;30771;47.988;-4.186;2023-08-01T16:30:25;15.10;;;9.40;;
45033;SDS011;30771;47.988;-4.186;2023-08-01T16:32:51;13.38;;;10.10;;
45033;SDS011;30771;47.988;-4.186;2023-08-01T16:35:17;17.90;;;10.55;;
45033;SDS011;30771;47.988;-4.186;2023-08-01T16:37:42;20.50;;;12.30;;
45033;SDS011;30771;47.988;-4.186;2023-08-01T16:40:08;20.30;;;11.63;;
45033;SDS011;30771;47.988;-4.186;2023-08-01T16:42:34;18.02;;;11.82;;
45033;SDS011;30771;47.988;-4.186;2023-08-01T16:45:00;19.40;;;11.38;;
45033;SDS011;30771;47.988;-4.186;2023-08-01T16:47:26;17.52;;;11.38;;
45033;SDS011;30771;47.988;-4.186;2023-08-01T16:49:54;15.10;;;11.25;;
45033;SDS011;30771;47.988;-4.186;2023-08-01T16:52:20;16.60;;;10.50;;
45033;SDS011;30771;47.988;-4.186;2023-08-01T16:54:46;15.20;;;9.98;;
45033;SDS011;30771;47.988;-4.186;2023-08-01T16:57:12;11.05;;;7.63;;
45033;SDS011;30771;47.988;-4.186;2023-08-01T16:59:38;13.38;;;7.93;;
45033;SDS011;30771;47.988;-4.186;2023-08-01T17:02:07;8.35;;;5.90;;
45033;SDS011;30771;47.988;-4.186;2023-08-01T17:04:34;7.55;;;5.28;;
45033;SDS011;30771;47.988;-4.186;2023-08-01T17:06:59;8.50;;;5.53;;
45033;SDS011;30771;47.988;-4.186;2023-08-01T17:09:26;8.63;;;5.80;;
45033;SDS011;30771;47.988;-4.186;2023-08-01T17:11:52;8.65;;;5.72;;
45033;SDS011;30771;47.988;-4.186;2023-08-01T17:14:18;9.02;;;5.82;;
45033;SDS011;30771;47.988;-4.186;2023-08-01T17:16:43;8.32;;;5.22;;
45033;SDS011;30771;47.988;-4.186;2023-08-01T17:19:09;7.72;;;5.82;;
45033;SDS011;30771;47.988;-4.186;2023-08-01T17:21:34;9.52;;;5.10;;
45033;SDS011;30771;47.988;-4.186;2023-08-01T17:23:59;7.35;;;5.05;;
45033;SDS011;30771;47.988;-4.186;2023-08-01T17:26:25;8.07;;;4.82;;
45033;SDS011;30771;47.988;-4.186;2023-08-01T17:28:50;8.70;;;5.25;;
45033;SDS011;30771;47.988;-4.186;2023-08-01T17:31:16;8.20;;;5.22;;
45033;SDS011;30771;47.988;-4.186;2023-08-01T17:33:44;11.93;;;8.30;;
45033;SDS011;30771;47.988;-4.186;2023-08-01T17:36:09;10.00;;;8.70;;
45033;SDS011;30771;47.988;-4.186;2023-08-01T17:38:35;9.32;;;8.35;;
45033;SDS011;30771;47.988;-4.186;2023-08-01T17:43:54;8.43;;;5.95;;
45033;SDS011;30771;47.988;-4.186;2023-08-01T17:46:23;12.95;;;8.80;;
45033;SDS011;30771;47.988;-4.186;2023-08-01T17:48:49;13.90;;;7.95;;
45033;SDS011;30771;47.988;-4.186;2023-08-01T17:51:14;35.33;;;14.85;;
45033;SDS011;30771;47.988;-4.186;2023-08-01T17:53:42;15.07;;;11.07;;
45033;SDS011;30771;47.988;-4.186;2023-08-01T17:56:09;12.45;;;9.93;;
45033;SDS011;30771;47.988;-4.186;2023-08-01T17:58:35;4.72;;;4.05;;
45033;SDS011;30771;47.988;-4.186;2023-08-01T18:01:01;7.25;;;4.88;;
45033;SDS011;30771;47.988;-4.186;2023-08-01T18:03:26;6.97;;;4.72;;
45033;SDS011;30771;47.988;-4.186;2023-08-01T18:08:46;8.55;;;5.45;;
45033;SDS011;30771;47.988;-4.186;2023-08-01T18:11:13;9.35;;;7.15;;
45033;SDS011;30771;47.988;-4.186;2023-08-01T18:13:40;21.52;;;8.38;;
45033;SDS011;30771;47.988;-4.186;2023-08-01T18:16:07;7.97;;;5.22;;
45033;SDS011;30771;47.988;-4.186;2023-08-01T18:18:34;11.68;;;10.45;;
45033;SDS011;30771;47.988;-4.186;2023-08-01T18:21:01;8.00;;;7.20;;
45033;SDS011;30771;47.988;-4.186;2023-08-01T18:23:30;5.05;;;2.88;;
45033;SDS011;30771;47.988;-4.186;2023-08-01T18:25:55;16.25;;;13.98;;
45033;SDS011;30771;47.988;-4.186;2023-08-01T18:28:21;29.83;;;27.08;;
45033;SDS011;30771;47.988;-4.186;2023-08-01T18:30:46;9.52;;;3.53;;
45033;SDS011;30771;47.988;-4.186;2023-08-01T18:33:12;37.90;;;19.05;;
45033;SDS011;30771;47.988;-4.186;2023-08-01T18:35:42;28.50;;;11.93;;
45033;SDS011;30771;47.988;-4.186;2023-08-01T18:38:09;34.58;;;24.35;;
45033;SDS011;30771;47.988;-4.186;2023-08-01T18:40:35;26.67;;;13.52;;
45033;SDS011;30771;47.988;-4.186;2023-08-01T18:43:02;19.80;;;12.63;;
45033;SDS011;30771;47.988;-4.186;2023-08-01T18:45:28;18.35;;;6.28;;
45033;SDS011;30771;47.988;-4.186;2023-08-01T18:47:53;19.40;;;7.00;;
45033;SDS011;30771;47.988;-4.186;2023-08-01T18:50:19;34.10;;;13.13;;
45033;SDS011;30771;47.988;-4.186;2023-08-01T18:52:47;48.90;;;9.27;;
45033;SDS011;30771;47.988;-4.186;2023-08-01T18:55:16;81.28;;;29.27;;
45033;SDS011;30771;47.988;-4.186;2023-08-01T18:57:45;66.75;;;11.98;;
45033;SDS011;30771;47.988;-4.186;2023-08-01T19:00:12;93.43;;;15.90;;
45033;SDS011;30771;47.988;-4.186;2023-08-01T19:02:38;86.78;;;14.63;;
45033;SDS011;30771;47.988;-4.186;2023-08-01T19:05:05;104.72;;;13.38;;
45033;SDS011;30771;47.988;-4.186;2023-08-01T19:07:31;122.43;;;14.20;;
45033;SDS011;30771;47.988;-4.186;2023-08-01T19:09:56;105.70;;;13.82;;
45033;SDS011;30771;47.988;-4.186;2023-08-01T19:12:22;125.05;;;13.88;;
45033;SDS011;30771;47.988;-4.186;2023-08-01T19:14:47;125.63;;;14.32;;
45033;SDS011;30771;47.988;-4.186;2023-08-01T19:17:13;133.85;;;15.48;;
45033;SDS011;30771;47.988;-4.186;2023-08-01T19:19:38;101.53;;;13.77;;
45033;SDS011;30771;47.988;-4.186;2023-08-01T19:22:04;136.85;;;13.77;;
45033;SDS011;30771;47.988;-4.186;2023-08-01T19:24:29;113.50;;;14.90;;
45033;SDS011;30771;47.988;-4.186;2023-08-01T19:26:55;126.25;;;14.15;;
45033;SDS011;30771;47.988;-4.186;2023-08-01T19:29:20;130.32;;;14.63;;
45033;SDS011;30771;47.988;-4.186;2023-08-01T19:31:46;143.75;;;15.35;;
45033;SDS011;30771;47.988;-4.186;2023-08-01T19:34:12;147.88;;;14.48;;
45033;SDS011;30771;47.988;-4.186;2023-08-01T19:36:37;144.38;;;14.13;;
45033;SDS011;30771;47.988;-4.186;2023-08-01T19:39:03;155.82;;;15.52;;
45033;SDS011;30771;47.988;-4.186;2023-08-01T19:41:29;145.05;;;15.27;;
45033;SDS011;30771;47.988;-4.186;2023-08-01T19:43:54;165.07;;;14.73;;
45033;SDS011;30771;47.988;-4.186;2023-08-01T19:46:20;175.30;;;15.90;;
45033;SDS011;30771;47.988;-4.186;2023-08-01T19:48:46;202.50;;;15.52;;
45033;SDS011;30771;47.988;-4.186;2023-08-01T19:51:12;174.68;;;15.05;;
45033;SDS011;30771;47.988;-4.186;2023-08-01T19:53:37;249.68;;;16.67;;
45033;SDS011;30771;47.988;-4.186;2023-08-01T19:56:03;198.68;;;16.35;;
45033;SDS011;30771;47.988;-4.186;2023-08-01T19:58:28;193.20;;;15.88;;
45033;SDS011;30771;47.988;-4.186;2023-08-01T20:00:54;179.52;;;16.27;;
45033;SDS011;30771;47.988;-4.186;2023-08-01T20:03:19;242.68;;;17.23;;
45033;SDS011;30771;47.988;-4.186;2023-08-01T20:05:45;225.85;;;16.08;;
45033;SDS011;30771;47.988;-4.186;2023-08-01T20:08:11;169.98;;;16.65;;
45033;SDS011;30771;47.988;-4.186;2023-08-01T20:10:37;269.95;;;16.98;;
45033;SDS011;30771;47.988;-4.186;2023-08-01T20:13:02;234.27;;;17.73;;
45033;SDS011;30771;47.988;-4.186;2023-08-01T20:15:28;223.98;;;19.55;;
45033;SDS011;30771;47.988;-4.186;2023-08-01T20:17:53;234.15;;;18.23;;
45033;SDS011;30771;47.988;-4.186;2023-08-01T20:20:19;271.80;;;20.30;;
45033;SDS011;30771;47.988;-4.186;2023-08-01T20:22:45;310.27;;;19.27;;
45033;SDS011;30771;47.988;-4.186;2023-08-01T20:25:12;147.07;;;17.58;;
45033;SDS011;30771;47.988;-4.186;2023-08-01T20:27:37;272.95;;;19.67;;
45033;SDS011;30771;47.988;-4.186;2023-08-01T20:30:03;260.60;;;19.48;;